Time;durP1;ratioP1;P1;durP2;ratioP2;P2;SDS_P1;SDS_P2;PMS_P1;PMS_P2;Temp;Humidity;BMP_temperature;BMP_pressure;BME280_temperature;BME280_humidity;BME280_pressure;Samples;Min_cycle;Max_cycle;Signal;HPM_P1;HPM_P2
2023/10/05 15:25:40;;;;;;;;;4.40;2.40;;;;;;;;6282292;22;45726;-72
2023/10/05 15:28:06;;;;;;;;;3.50;3.00;;;;;;;;6309042;22;45446;-72
2023/10/05 15:30:33;;;;;;;;;5.75;2.25;;;;;;;;6306756;22;45366;-72
2023/10/05 15:32:59;;;;;;;;;4.00;2.75;;;;;;;;6307687;22;45442;-72
2023/10/05 15:35:24;;;;;;;;;3.00;2.00;;;;;;;;6279364;22;45349;-72
2023/10/05 15:37:53;;;;;;;;;2.25;2.25;;;;;;;;6309063;22;45267;-71
2023/10/05 15:40:20;;;;;;;;;2.75;2.75;;;;;;;;6306436;22;45432;-71
2023/10/05 15:42:47;;;;;;;;;4.00;2.50;;;;;;;;6307086;22;46127;-72
2023/10/05 15:45:13;;;;;;;;;5.00;2.75;;;;;;;;6307857;22;45155;-72
2023/10/05 15:47:45;;;;;;;;;1.75;1.50;;;;;;;;6308286;22;45235;-71
2023/10/05 15:50:13;;;;;;;;;6.00;3.00;;;;;;;;6307899;22;45242;-72
2023/10/05 15:52:49;;;;;;;;;2.00;2.00;;;;;;;;6307548;22;45592;-72
2023/10/05 15:55:18;;;;;;;;;3.50;3.00;;;;;;;;6307885;22;45291;-72
2023/10/05 15:57:49;;;;;;;;;3.00;2.00;;;;;;;;6281052;22;45367;-71
2023/10/05 16:00:15;;;;;;;;;2.75;2.50;;;;;;;;6307783;22;45280;-72
2023/10/05 16:02:44;;;;;;;;;2.50;2.50;;;;;;;;6307004;22;45255;-73
2023/10/05 16:05:11;;;;;;;;;2.75;2.50;;;;;;;;6308221;22;45188;-72
2023/10/05 16:07:36;;;;;;;;;3.25;3.25;;;;;;;;6307718;22;45222;-72
2023/10/05 16:10:05;;;;;;;;;4.00;4.00;;;;;;;;6307057;22;45214;-72
2023/10/05 16:12:30;;;;;;;;;0.25;0.25;;;;;;;;6307355;22;46161;-73
2023/10/05 16:14:55;;;;;;;;;2.75;2.75;;;;;;;;6307890;22;45297;-72
2023/10/05 16:17:20;;;;;;;;;3.00;3.00;;;;;;;;6308661;22;45211;-72
2023/10/05 16:19:45;;;;;;;;;1.00;1.00;;;;;;;;6306955;22;45357;-72
2023/10/05 16:22:12;;;;;;;;;5.25;3.50;;;;;;;;6308414;22;45364;-72
2023/10/05 16:24:37;;;;;;;;;2.00;2.00;;;;;;;;6310995;22;45287;-72
2023/10/05 16:27:02;;;;;;;;;3.00;3.00;;;;;;;;6340468;22;45215;-72
2023/10/05 16:29:28;;;;;;;;;2.75;2.75;;;;;;;;6338825;22;45290;-72
2023/10/05 16:31:53;;;;;;;;;5.00;4.00;;;;;;;;6339287;22;46113;-73
2023/10/05 16:34:18;;;;;;;;;5.75;2.75;;;;;;;;6339720;22;45562;-72
2023/10/05 16:36:45;;;;;;;;;2.00;2.00;;;;;;;;6339452;22;45269;-72
2023/10/05 16:39:11;;;;;;;;;6.00;5.00;;;;;;;;6338707;22;45164;-73
2023/10/05 16:41:36;;;;;;;;;5.00;5.00;;;;;;;;6309757;22;46755;-73
2023/10/05 16:44:03;;;;;;;;;6.00;6.00;;;;;;;;6339852;22;45250;-73
2023/10/05 16:46:28;;;;;;;;;3.00;3.00;;;;;;;;6339496;22;45260;-73
2023/10/05 16:48:53;;;;;;;;;5.00;4.33;;;;;;;;6310816;22;47023;-73
2023/10/05 16:51:19;;;;;;;;;6.67;6.00;;;;;;;;6339542;22;45336;-73
2023/10/05 16:53:44;;;;;;;;;9.00;8.33;;;;;;;;6339588;22;45445;-73
2023/10/05 16:56:09;;;;;;;;;4.00;3.67;;;;;;;;6340675;22;45514;-73
2023/10/05 16:58:34;;;;;;;;;6.00;6.00;;;;;;;;6311433;22;45317;-73
2023/10/05 17:01:00;;;;;;;;;8.67;7.33;;;;;;;;6340195;22;45709;-73
2023/10/05 17:03:26;;;;;;;;;8.67;6.33;;;;;;;;6310996;22;45344;-73
2023/10/05 17:05:55;;;;;;;;;5.00;5.00;;;;;;;;6340473;22;45405;-73
2023/10/05 17:08:21;;;;;;;;;5.00;5.00;;;;;;;;6340233;22;45310;-73
2023/10/05 17:10:47;;;;;;;;;6.00;4.67;;;;;;;;6339102;22;45553;-73
2023/10/05 17:13:12;;;;;;;;;6.00;3.67;;;;;;;;6311436;22;45226;-73
2023/10/05 17:15:37;;;;;;;;;9.33;5.67;;;;;;;;6341161;22;45030;-73
2023/10/05 17:18:02;;;;;;;;;4.33;4.33;;;;;;;;6340607;22;45244;-72
2023/10/05 17:20:28;;;;;;;;;6.67;5.33;;;;;;;;6340876;22;45207;-72
2023/10/05 17:22:54;;;;;;;;;9.00;7.00;;;;;;;;6340080;22;45115;-73
2023/10/05 17:25:21;;;;;;;;;13.67;8.67;;;;;;;;6340067;22;45357;-72
2023/10/05 17:27:46;;;;;;;;;9.33;9.00;;;;;;;;6340261;22;45388;-72
2023/10/05 17:30:13;;;;;;;;;14.33;9.67;;;;;;;;6340286;22;45382;-72
2023/10/05 17:32:41;;;;;;;;;16.33;12.67;;;;;;;;6339842;22;45326;-69
2023/10/05 17:35:07;;;;;;;;;13.00;13.00;;;;;;;;6340813;22;45250;-70
2023/10/05 17:37:34;;;;;;;;;21.33;16.67;;;;;;;;6338371;22;45421;-71
2023/10/05 17:40:00;;;;;;;;;14.33;12.67;;;;;;;;6339764;22;46820;-71
2023/10/05 17:42:25;;;;;;;;;11.67;10.00;;;;;;;;6340150;22;45285;-71
2023/10/05 17:44:51;;;;;;;;;11.00;11.00;;;;;;;;6311084;22;45196;-71
2023/10/05 17:47:16;;;;;;;;;16.00;12.00;;;;;;;;6340273;22;45234;-71
2023/10/05 17:49:41;;;;;;;;;11.00;9.67;;;;;;;;6340396;22;45286;-71
2023/10/05 17:52:07;;;;;;;;;10.00;9.33;;;;;;;;6340183;22;45210;-71
2023/10/05 17:54:33;;;;;;;;;10.33;10.33;;;;;;;;6311596;22;45223;-71
2023/10/05 17:56:59;;;;;;;;;12.00;10.67;;;;;;;;6339996;22;45382;-71
2023/10/05 17:59:25;;;;;;;;;10.67;7.67;;;;;;;;6310857;22;46371;-71
2023/10/05 18:01:50;;;;;;;;;11.67;10.33;;;;;;;;6340097;22;45140;-71
2023/10/05 18:04:16;;;;;;;;;11.33;10.00;;;;;;;;6340587;22;45127;-72
2023/10/05 18:06:45;;;;;;;;;16.67;12.00;;;;;;;;6340126;22;45202;-71
2023/10/05 18:09:10;;;;;;;;;14.00;10.33;;;;;;;;6339641;22;46010;-70
2023/10/05 18:11:36;;;;;;;;;17.00;12.00;;;;;;;;6339888;22;45247;-73
2023/10/05 18:14:02;;;;;;;;;18.00;15.33;;;;;;;;6340623;22;45253;-72
2023/10/05 18:16:30;;;;;;;;;15.33;15.00;;;;;;;;6339573;22;45492;-74
2023/10/05 18:18:55;;;;;;;;;12.00;10.33;;;;;;;;6311369;22;46627;-72
2023/10/05 18:21:22;;;;;;;;;12.67;9.67;;;;;;;;6340041;22;45201;-72
2023/10/05 18:23:48;;;;;;;;;18.33;14.33;;;;;;;;6340213;22;45230;-72
2023/10/05 18:26:14;;;;;;;;;24.33;23.33;;;;;;;;6311649;22;46495;-73
2023/10/05 18:28:39;;;;;;;;;18.33;15.33;;;;;;;;6312845;22;46494;-73
2023/10/05 18:31:05;;;;;;;;;22.00;14.00;;;;;;;;6313072;22;45665;-72
2023/10/05 18:33:30;;;;;;;;;23.00;21.67;;;;;;;;6312770;22;45339;-73
2023/10/05 18:35:58;;;;;;;;;18.00;17.00;;;;;;;;6341464;22;45276;-72
2023/10/05 18:38:23;;;;;;;;;26.33;24.33;;;;;;;;6341309;22;46193;-72
2023/10/05 18:40:48;;;;;;;;;32.67;31.67;;;;;;;;6340556;22;45263;-72
2023/10/05 18:43:13;;;;;;;;;31.00;28.67;;;;;;;;6341444;22;45246;-72
2023/10/05 18:45:39;;;;;;;;;48.00;38.75;;;;;;;;6341645;22;45207;-72
2023/10/05 18:48:04;;;;;;;;;23.67;21.00;;;;;;;;6340779;22;46268;-72
2023/10/05 18:50:31;;;;;;;;;28.00;25.33;;;;;;;;6340142;22;45226;-72
2023/10/05 18:52:56;;;;;;;;;27.33;24.67;;;;;;;;6341077;22;45488;-73
2023/10/05 18:55:24;;;;;;;;;27.00;21.00;;;;;;;;6341296;22;45424;-72
2023/10/05 18:57:50;;;;;;;;;13.67;12.00;;;;;;;;6340641;22;46602;-72
2023/10/05 19:00:25;;;;;;;;;21.00;16.00;;;;;;;;6341259;22;45300;-72
2023/10/05 19:02:50;;;;;;;;;22.00;18.33;;;;;;;;6341241;22;45369;-72
2023/10/05 19:05:16;;;;;;;;;16.67;16.67;;;;;;;;6340838;22;45368;-72
2023/10/05 19:07:43;;;;;;;;;18.67;15.33;;;;;;;;6340828;22;45270;-72
2023/10/05 19:10:10;;;;;;;;;15.00;11.67;;;;;;;;6312875;22;45684;-72
2023/10/05 19:12:36;;;;;;;;;20.33;18.33;;;;;;;;6340946;22;45184;-71
2023/10/05 19:15:04;;;;;;;;;20.00;19.33;;;;;;;;6341173;22;45155;-71
2023/10/05 19:17:29;;;;;;;;;23.67;20.67;;;;;;;;6340637;22;46607;-71
2023/10/05 19:19:55;;;;;;;;;17.00;16.67;;;;;;;;6341395;22;45144;-71
2023/10/05 19:22:20;;;;;;;;;18.00;13.33;;;;;;;;6341199;22;45243;-71
2023/10/05 19:24:46;;;;;;;;;21.00;18.67;;;;;;;;6340541;22;45262;-71
2023/10/05 19:27:12;;;;;;;;;21.67;20.33;;;;;;;;6340601;22;45650;-71
2023/10/05 19:29:37;;;;;;;;;21.67;20.67;;;;;;;;6340950;22;45235;-71
2023/10/05 19:32:04;;;;;;;;;13.33;13.33;;;;;;;;6341204;22;45204;-72
2023/10/05 19:34:29;;;;;;;;;19.67;16.00;;;;;;;;6341163;22;45450;-72
2023/10/05 19:36:54;;;;;;;;;21.33;18.33;;;;;;;;6340608;22;45199;-72
